Darstellungsparameter: Aktuell verwendete Einstellungen:
Skalierung der Graphiken ... ?
xyx+y,   Skalierungsfaktor:      Skalierung: Modus: x, Faktor: 1
Darstellungszeitraum ... ?
Vom - - bis: - -   Zeitraum: 02.07.2014 - 04.07.2014
Min/Max/Avg-Anzeige ... ?
Zeige MMA aktuell
Zeige MMA Monat
Zeige MMA alles
Zeige --A aktuell
Zeige --A Monat
Zeige --A alles
Keine MMA-Anzeige
MMA:
Keine MMA-Graphiken
MMA-Basis: 02.07.2014 - 04.07.2014
Quicknavigation für Darstellung... ?
Tage:      1T, 2T, 3T, 5T -1T -2T -3T -5T +1T +2T +3T +5T
Wochen: 1W, 2W, 3W -1W -2W -3W +1W +2W +3W
Monate: 1M, 3M, 6M -1M -3M -6M +1M +3M +6M
Jahre:    1J, 3J, 5J, 10J -1J -3J -5J -10J +1J +3J +5J +10J
Nutze für die Darstellung ... ?
Originaldaten oder Mittelwerte auf ...
Stundenbasis Tagesbasis Wochenbasis
Monatsbasis Jahresbasis      Datenbasis: Original-Daten
Darstellen als:
Statistik (Auto) Statistik J:M      Darstellung:
Zur Graphik,    zurück zur Übersicht aller Sensoren.
 
Tabellarische Datenbersicht: ?
 
Sensor: Nr:Datum:Temp:Abs-Feuchte:Windchill:Wind:
Aussen-T/F 1 02-07-2014 00:00:00 13 C 8.73 g/m*3 13 C 0 km/h
2 02-07-2014 00:05:00 13 C 8.73 g/m*3 13 C 0 km/h
3 02-07-2014 00:10:00 12.9 C 8.68 g/m*3 12.9 C 0 km/h
4 02-07-2014 00:15:00 12.8 C 8.85 g/m*3 12.8 C 0 km/h
5 02-07-2014 00:20:00 12.7 C 8.91 g/m*3 12.7 C 1.6 km/h
6 02-07-2014 00:25:00 12.6 C 8.74 g/m*3 12.6 C 0 km/h
7 02-07-2014 00:30:00 12.6 C 8.85 g/m*3 12.6 C 0 km/h
8 02-07-2014 00:35:00 12.3 C 8.69 g/m*3 12.3 C 0 km/h
9 02-07-2014 00:40:00 12.2 C 8.74 g/m*3 12.2 C 0 km/h
10 02-07-2014 00:45:00 12.1 C 8.79 g/m*3 12.1 C 0 km/h
11 02-07-2014 00:50:00 11.9 C 8.58 g/m*3 11.9 C 0 km/h
12 02-07-2014 00:55:00 11.8 C 8.63 g/m*3 11.8 C 0 km/h
13 02-07-2014 01:00:00 11.7 C 8.58 g/m*3 11.7 C 0 km/h
14 02-07-2014 01:05:00 11.5 C 8.47 g/m*3 11.5 C 0 km/h
15 02-07-2014 01:10:00 11.4 C 8.52 g/m*3 11.4 C 0 km/h
16 02-07-2014 01:15:00 11.3 C 8.47 g/m*3 11.3 C 0 km/h
17 02-07-2014 01:20:00 11.2 C 8.41 g/m*3 11.2 C 0 km/h
18 02-07-2014 01:25:00 11.1 C 8.46 g/m*3 11.1 C 0 km/h
19 02-07-2014 01:30:00 10.9 C 8.36 g/m*3 10.9 C 0 km/h
20 02-07-2014 01:35:00 10.8 C 8.4 g/m*3 10.8 C 0 km/h
21 02-07-2014 01:40:00 10.8 C 8.4 g/m*3 10.8 C 0 km/h
22 02-07-2014 01:45:00 10.7 C 8.35 g/m*3 10.7 C 0 km/h
23 02-07-2014 01:50:00 10.6 C 8.3 g/m*3 10.6 C 0 km/h
24 02-07-2014 01:55:00 10.6 C 8.3 g/m*3 10.6 C 0 km/h
25 02-07-2014 02:00:00 10.6 C 8.3 g/m*3 10.6 C 0 km/h
Sensor: Nr:Datum:Temp:Abs-Feuchte:Windchill:Wind:
Aussen-T/F 26 02-07-2014 02:05:00 10.6 C 8.3 g/m*3 10.6 C 0 km/h
27 02-07-2014 02:10:00 10.5 C 8.24 g/m*3 10.5 C 0 km/h
28 02-07-2014 02:15:00 10.5 C 8.34 g/m*3 10.5 C 0 km/h
29 02-07-2014 02:20:00 10.4 C 8.29 g/m*3 10.4 C 0 km/h
30 02-07-2014 02:25:00 10.3 C 8.24 g/m*3 10.3 C 0 km/h
31 02-07-2014 02:30:00 10.3 C 8.33 g/m*3 10.3 C 0 km/h
32 02-07-2014 02:35:00 10.2 C 8.18 g/m*3 10.2 C 0 km/h
33 02-07-2014 02:40:00 10.2 C 8.18 g/m*3 10.2 C 0 km/h
34 02-07-2014 02:45:00 10.1 C 8.13 g/m*3 10.1 C 0 km/h
35 02-07-2014 02:50:00 10.1 C 8.23 g/m*3 10.1 C 0 km/h
36 02-07-2014 02:55:00 9.9 C 8.12 g/m*3 9.9 C 0 km/h
37 02-07-2014 03:00:00 9.9 C 8.12 g/m*3 9.9 C 0 km/h
38 02-07-2014 03:05:00 9.8 C 8.16 g/m*3 9.8 C 0 km/h
39 02-07-2014 03:10:00 9.7 C 8.11 g/m*3 9.7 C 0 km/h
40 02-07-2014 03:15:00 9.7 C 8.2 g/m*3 9.7 C 0 km/h
41 02-07-2014 03:20:00 9.6 C 8.15 g/m*3 9.6 C 0 km/h
42 02-07-2014 03:25:00 9.6 C 8.15 g/m*3 9.6 C 0 km/h
43 02-07-2014 03:30:00 9.6 C 8.15 g/m*3 9.6 C 0 km/h
44 02-07-2014 03:35:00 9.5 C 8.1 g/m*3 9.5 C 0 km/h
45 02-07-2014 03:40:00 9.5 C 8.1 g/m*3 9.5 C 0 km/h
46 02-07-2014 03:45:00 9.5 C 8.1 g/m*3 9.5 C 0 km/h
47 02-07-2014 03:50:00 9.4 C 8.14 g/m*3 9.4 C 0 km/h
48 02-07-2014 03:55:00 9.3 C 8.09 g/m*3 9.3 C 0 km/h
49 02-07-2014 04:00:00 9.3 C 8.09 g/m*3 9.3 C 0 km/h
50 02-07-2014 04:05:00 9.3 C 8.18 g/m*3 9.3 C 0 km/h
Sensor: Nr:Datum:Temp:Abs-Feuchte:Windchill:Wind:
Aussen-T/F 51 02-07-2014 04:10:00 9.2 C 8.04 g/m*3 9.2 C 0 km/h
52 02-07-2014 04:15:00 9.2 C 8.13 g/m*3 9.2 C 0 km/h
53 02-07-2014 04:20:00 9.2 C 8.13 g/m*3 9.2 C 0 km/h
54 02-07-2014 04:25:00 9.1 C 8.07 g/m*3 9.1 C 0 km/h
55 02-07-2014 04:30:00 9.1 C 8.07 g/m*3 9.1 C 0 km/h
56 02-07-2014 04:35:00 9 C 8.02 g/m*3 9 C 0 km/h
57 02-07-2014 04:40:00 8.9 C 7.97 g/m*3 8.9 C 0 km/h
58 02-07-2014 04:45:00 8.9 C 8.06 g/m*3 8.9 C 0 km/h
59 02-07-2014 04:50:00 8.9 C 8.06 g/m*3 8.9 C 0 km/h
60 02-07-2014 04:55:00 8.8 C 8.01 g/m*3 8.8 C 0 km/h
61 02-07-2014 05:00:00 8.8 C 8.01 g/m*3 8.8 C 0 km/h
62 02-07-2014 05:05:00 8.8 C 8.01 g/m*3 8.8 C 0 km/h
63 02-07-2014 05:10:00 8.8 C 8.01 g/m*3 8.8 C 0 km/h
64 02-07-2014 05:15:00 8.7 C 7.96 g/m*3 8.7 C 0 km/h
65 02-07-2014 05:20:00 8.7 C 7.96 g/m*3 8.7 C 0 km/h
66 02-07-2014 05:25:00 8.7 C 7.96 g/m*3 8.7 C 0 km/h
67 02-07-2014 05:30:00 8.6 C 7.99 g/m*3 8.6 C 0 km/h
68 02-07-2014 05:35:00 8.6 C 7.99 g/m*3 8.6 C 0 km/h
69 02-07-2014 05:40:00 8.6 C 7.99 g/m*3 8.6 C 0 km/h
70 02-07-2014 05:45:00 8.6 C 7.99 g/m*3 8.6 C 0 km/h
71 02-07-2014 05:50:00 8.6 C 7.99 g/m*3 8.6 C 0 km/h
72 02-07-2014 05:55:00 8.6 C 7.99 g/m*3 8.6 C 0 km/h
73 02-07-2014 06:00:00 8.6 C 7.99 g/m*3 8.6 C 0 km/h
74 02-07-2014 06:05:00 8.6 C 7.99 g/m*3 8.6 C 0 km/h
75 02-07-2014 06:10:00 8.6 C 7.99 g/m*3 8.6 C 0 km/h
Sensor: Nr:Datum:Temp:Abs-Feuchte:Windchill:Wind:
Aussen-T/F 76 02-07-2014 06:15:00 8.6 C 7.99 g/m*3 8.6 C 0 km/h
77 02-07-2014 06:20:00 8.6 C 8.08 g/m*3 8.6 C 0 km/h
78 02-07-2014 06:25:00 8.6 C 8.08 g/m*3 8.6 C 0 km/h
79 02-07-2014 06:30:00 8.7 C 8.13 g/m*3 8.7 C 0 km/h
80 02-07-2014 06:35:00 8.7 C 8.13 g/m*3 8.7 C 0 km/h
81 02-07-2014 06:40:00 8.7 C 8.13 g/m*3 8.7 C 0 km/h
82 02-07-2014 06:45:00 8.8 C 8.18 g/m*3 8.8 C 0 km/h
83 02-07-2014 06:50:00 8.8 C 8.18 g/m*3 8.8 C 0 km/h
84 02-07-2014 06:55:00 8.9 C 8.23 g/m*3 8.9 C 0 km/h
85 02-07-2014 07:00:00 8.9 C 8.23 g/m*3 8.9 C 0 km/h
86 02-07-2014 07:05:00 9 C 8.29 g/m*3 9 C 0 km/h
87 02-07-2014 07:10:00 9.1 C 8.34 g/m*3 9.1 C 0 km/h
88 02-07-2014 07:15:00 9.2 C 8.39 g/m*3 9.2 C 0 km/h
89 02-07-2014 07:20:00 9.3 C 8.45 g/m*3 9.3 C 0 km/h
90 02-07-2014 07:25:00 9.3 C 8.45 g/m*3 9.3 C 0 km/h
91 02-07-2014 07:30:00 9.5 C 8.56 g/m*3 9.5 C 0 km/h
92 02-07-2014 07:35:00 9.6 C 8.52 g/m*3 9.6 C 1.6 km/h
93 02-07-2014 07:40:00 9.7 C 8.67 g/m*3 9.7 C 0 km/h
94 02-07-2014 07:45:00 9.8 C 8.63 g/m*3 9.8 C 0 km/h
95 02-07-2014 07:50:00 9.9 C 8.68 g/m*3 9.9 C 0 km/h
96 02-07-2014 07:55:00 10.1 C 8.79 g/m*3 10.1 C 0 km/h
97 02-07-2014 08:00:00 10.3 C 8.91 g/m*3 10.3 C 0 km/h
98 02-07-2014 08:05:00 10.7 C 9.13 g/m*3 10.7 C 0 km/h
99 02-07-2014 08:10:00 11.1 C 9.17 g/m*3 11.1 C 0 km/h
100 02-07-2014 08:15:00 11.5 C 9.3 g/m*3 11.5 C 0 km/h
Sensor: Nr:Datum:Temp:Abs-Feuchte:Windchill:Wind:
Aussen-T/F 101 02-07-2014 08:20:00 11.8 C 9.37 g/m*3 11.8 C 0 km/h
102 02-07-2014 08:25:00 12.1 C 9.44 g/m*3 12.1 C 0 km/h
103 02-07-2014 08:30:00 12.3 C 9.56 g/m*3 12.3 C 0 km/h
104 02-07-2014 08:35:00 12.8 C 9.74 g/m*3 12.8 C 0 km/h
105 02-07-2014 08:40:00 13.2 C 9.76 g/m*3 13.2 C 1.6 km/h
106 02-07-2014 08:45:00 13.6 C 9.89 g/m*3 13.6 C 3.2 km/h
107 02-07-2014 08:50:00 13.8 C 10.01 g/m*3 13.8 C 0 km/h
108 02-07-2014 08:55:00 14 C 9.89 g/m*3 14 C 0 km/h
109 02-07-2014 09:00:00 14.3 C 9.95 g/m*3 14.3 C 1.6 km/h
110 02-07-2014 09:05:00 14.4 C 9.89 g/m*3 14.4 C 0 km/h
111 02-07-2014 09:10:00 14.7 C 10.07 g/m*3 14.7 C 0 km/h
112 02-07-2014 09:15:00 14.7 C 9.95 g/m*3 14.7 C 0 km/h
113 02-07-2014 09:20:00 14.6 C 9.89 g/m*3 14.6 C 0 km/h
114 02-07-2014 09:25:00 14.4 C 9.52 g/m*3 14.4 C 1.6 km/h
115 02-07-2014 09:30:00 14.3 C 9.83 g/m*3 14.3 C 0 km/h
116 02-07-2014 09:35:00 14.3 C 9.83 g/m*3 14.3 C 1.6 km/h
117 02-07-2014 09:40:00 14.3 C 9.83 g/m*3 14.3 C 0 km/h
118 02-07-2014 09:45:00 14.4 C 9.89 g/m*3 14.4 C 3.2 km/h
119 02-07-2014 09:50:00 14.6 C 9.76 g/m*3 14.6 C 3.2 km/h
120 02-07-2014 09:55:00 14.9 C 10.2 g/m*3 14.9 C 1.6 km/h
121 02-07-2014 10:00:00 15.4 C 10.12 g/m*3 15.4 C 0 km/h
122 02-07-2014 10:05:00 15.9 C 10.02 g/m*3 15.9 C 4.8 km/h
123 02-07-2014 10:10:00 16.5 C 9.83 g/m*3 16.5 C 4.8 km/h
124 02-07-2014 10:15:00 16.9 C 9.78 g/m*3 16.9 C 3.2 km/h
125 02-07-2014 10:20:00 17.2 C 10.25 g/m*3 17.2 C 3.2 km/h
Sensor: Nr:Datum:Temp:Abs-Feuchte:Windchill:Wind:
Aussen-T/F 126 02-07-2014 10:25:00 17.5 C 10.44 g/m*3 17.5 C 1.6 km/h
127 02-07-2014 10:30:00 17.8 C 10.17 g/m*3 17.8 C 1.6 km/h
128 02-07-2014 10:35:00 18.2 C 10.26 g/m*3 18.2 C 3.2 km/h
129 02-07-2014 10:40:00 18.6 C 9.55 g/m*3 18.6 C 4.8 km/h
130 02-07-2014 10:45:00 18.9 C 10.04 g/m*3 18.9 C 4.8 km/h
131 02-07-2014 10:50:00 19.2 C 9.89 g/m*3 19.2 C 4.8 km/h
132 02-07-2014 10:55:00 19.4 C 10.01 g/m*3 19.4 C 4.8 km/h
133 02-07-2014 11:00:00 19.7 C 9.85 g/m*3 19.7 C 8.1 km/h
134 02-07-2014 11:05:00 19.8 C 9.57 g/m*3 19.8 C 6.4 km/h
135 02-07-2014 11:10:00 20 C 9.68 g/m*3 20 C 8.1 km/h
136 02-07-2014 11:15:00 20.1 C 10.08 g/m*3 20.1 C 3.2 km/h
137 02-07-2014 11:20:00 20.2 C 9.62 g/m*3 20.2 C 8.1 km/h
138 02-07-2014 11:25:00 20.3 C 9.85 g/m*3 20.3 C 6.4 km/h
139 02-07-2014 11:30:00 20.3 C 9.67 g/m*3 20.3 C 3.2 km/h
140 02-07-2014 11:35:00 20.4 C 9.55 g/m*3 20.4 C 6.4 km/h
141 02-07-2014 11:40:00 20.6 C 10.38 g/m*3 20.6 C 8.1 km/h
142 02-07-2014 11:45:00 20.7 C 10.08 g/m*3 20.7 C 8.1 km/h
143 02-07-2014 11:50:00 20.8 C 9.42 g/m*3 20.8 C 6.4 km/h
144 02-07-2014 11:55:00 20.8 C 9.78 g/m*3 20.8 C 6.4 km/h
145 02-07-2014 12:00:00 21 C 10.26 g/m*3 21 C 6.4 km/h
146 02-07-2014 12:05:00 21.3 C 9.51 g/m*3 21.3 C 8.1 km/h
147 02-07-2014 12:10:00 21.4 C 9.37 g/m*3 21.4 C 8.1 km/h
148 02-07-2014 12:15:00 21.4 C 9.37 g/m*3 21.4 C 9.7 km/h
149 02-07-2014 12:20:00 21.4 C 9.37 g/m*3 21.4 C 9.7 km/h
150 02-07-2014 12:25:00 21.5 C 9.62 g/m*3 21.5 C 4.8 km/h
Sensor: Nr:Datum:Temp:Abs-Feuchte:Windchill:Wind:
Aussen-T/F 151 02-07-2014 12:30:00 21.8 C 9.98 g/m*3 21.8 C 9.7 km/h
152 02-07-2014 12:35:00 22.1 C 9.56 g/m*3 22.1 C 9.7 km/h
153 02-07-2014 12:40:00 21.8 C 9.02 g/m*3 21.8 C 4.8 km/h
154 02-07-2014 12:45:00 21.6 C 9.48 g/m*3 21.6 C 4.8 km/h
155 02-07-2014 12:50:00 21.8 C 9.4 g/m*3 21.8 C 4.8 km/h
156 02-07-2014 12:55:00 21.9 C 9.65 g/m*3 21.9 C 4.8 km/h
157 02-07-2014 13:00:00 22.1 C 9.56 g/m*3 22.1 C 8.1 km/h
158 02-07-2014 13:05:00 22.3 C 9.48 g/m*3 22.3 C 8.1 km/h
159 02-07-2014 13:10:00 22.3 C 9.28 g/m*3 22.3 C 6.4 km/h
160 02-07-2014 13:15:00 22.3 C 9.08 g/m*3 22.3 C 9.7 km/h
161 02-07-2014 13:20:00 22.3 C 9.08 g/m*3 22.3 C 11.3 km/h
162 02-07-2014 13:25:00 22.4 C 8.94 g/m*3 22.4 C 6.4 km/h
163 02-07-2014 13:30:00 22.6 C 9.44 g/m*3 22.6 C 9.7 km/h
164 02-07-2014 13:35:00 22.7 C 10.51 g/m*3 22.7 C 9.7 km/h
165 02-07-2014 13:40:00 22.9 C 9.2 g/m*3 22.9 C 6.4 km/h
166 02-07-2014 13:45:00 23.1 C 9.1 g/m*3 23.1 C 8.1 km/h
167 02-07-2014 13:50:00 22.9 C 9.2 g/m*3 22.9 C 8.1 km/h
168 02-07-2014 13:55:00 22.8 C 9.35 g/m*3 22.8 C 12.9 km/h
169 02-07-2014 14:00:00 22.7 C 9.09 g/m*3 22.7 C 9.7 km/h
170 02-07-2014 14:05:00 22.6 C 9.44 g/m*3 22.6 C 6.4 km/h
171 02-07-2014 14:10:00 22.8 C 9.55 g/m*3 22.8 C 4.8 km/h
172 02-07-2014 14:15:00 23 C 9.45 g/m*3 23 C 12.9 km/h
173 02-07-2014 14:20:00 22.9 C 8.99 g/m*3 22.9 C 8.1 km/h
174 02-07-2014 14:25:00 23.1 C 9.72 g/m*3 23.1 C 12.9 km/h
175 02-07-2014 14:30:00 23.3 C 9.62 g/m*3 23.3 C 8.1 km/h
Sensor: Nr:Datum:Temp:Abs-Feuchte:Windchill:Wind:
Aussen-T/F 176 02-07-2014 14:35:00 23.6 C 9.78 g/m*3 23.6 C 14.5 km/h
177 02-07-2014 14:40:00 23.6 C 9.36 g/m*3 23.6 C 11.3 km/h
178 02-07-2014 14:45:00 23.7 C 9.2 g/m*3 23.7 C 8.1 km/h
179 02-07-2014 14:50:00 23.7 C 9.63 g/m*3 23.7 C 9.7 km/h
180 02-07-2014 14:55:00 23.9 C 9.95 g/m*3 23.9 C 11.3 km/h
181 02-07-2014 15:00:00 23.8 C 9.46 g/m*3 23.8 C 9.7 km/h
182 02-07-2014 15:05:00 23.7 C 9.41 g/m*3 23.7 C 12.9 km/h
183 02-07-2014 15:10:00 23.8 C 9.25 g/m*3 23.8 C 14.5 km/h
184 02-07-2014 15:15:00 23.8 C 8.82 g/m*3 23.8 C 14.5 km/h
185 02-07-2014 15:20:00 23.6 C 8.29 g/m*3 23.6 C 6.4 km/h
186 02-07-2014 15:25:00 23.7 C 8.77 g/m*3 23.7 C 9.7 km/h
187 02-07-2014 15:30:00 23.7 C 9.2 g/m*3 23.7 C 8.1 km/h
188 02-07-2014 15:35:00 23.7 C 8.98 g/m*3 23.7 C 11.3 km/h
189 02-07-2014 15:40:00 23.8 C 9.03 g/m*3 23.8 C 8.1 km/h
190 02-07-2014 15:45:00 24 C 8.7 g/m*3 24 C 11.3 km/h
191 02-07-2014 15:50:00 23.9 C 8.65 g/m*3 23.9 C 9.7 km/h
192 02-07-2014 15:55:00 24.3 C 8.41 g/m*3 24.3 C 6.4 km/h
193 02-07-2014 16:00:00 24.4 C 8.46 g/m*3 24.4 C 3.2 km/h
194 02-07-2014 16:05:00 24.4 C 8.46 g/m*3 24.4 C 8.1 km/h
195 02-07-2014 16:10:00 24.6 C 7.88 g/m*3 24.6 C 9.7 km/h
196 02-07-2014 16:15:00 24.5 C 7.83 g/m*3 24.5 C 6.4 km/h
197 02-07-2014 16:20:00 24.7 C 8.83 g/m*3 24.7 C 9.7 km/h
198 02-07-2014 16:25:00 25 C 8.52 g/m*3 25 C 9.7 km/h
199 02-07-2014 16:30:00 25.1 C 8.1 g/m*3 25.1 C 11.3 km/h
200 02-07-2014 16:35:00 25.1 C 8.8 g/m*3 25.1 C 11.3 km/h
Sensor: Nr:Datum:Temp:Abs-Feuchte:Windchill:Wind:
Aussen-T/F 201 02-07-2014 16:40:00 25.1 C 8.33 g/m*3 25.1 C 8.1 km/h
202 02-07-2014 16:45:00 25 C 7.83 g/m*3 25 C 4.8 km/h
203 02-07-2014 16:50:00 24.9 C 8.47 g/m*3 24.9 C 6.4 km/h
204 02-07-2014 16:55:00 24.7 C 8.6 g/m*3 24.7 C 6.4 km/h
205 02-07-2014 17:00:00 24.8 C 8.65 g/m*3 24.8 C 12.9 km/h
206 02-07-2014 17:05:00 24.9 C 7.55 g/m*3 24.9 C 8.1 km/h
207 02-07-2014 17:10:00 24.9 C 7.78 g/m*3 24.9 C 8.1 km/h
208 02-07-2014 17:15:00 24.9 C 7.78 g/m*3 24.9 C 9.7 km/h
209 02-07-2014 17:20:00 25 C 8.29 g/m*3 25 C 8.1 km/h
210 02-07-2014 17:25:00 25.2 C 8.85 g/m*3 25.2 C 11.3 km/h
211 02-07-2014 17:30:00 25.3 C 8.19 g/m*3 25.3 C 12.9 km/h
212 02-07-2014 17:35:00 25.2 C 8.85 g/m*3 25.2 C 6.4 km/h
213 02-07-2014 17:40:00 25.1 C 8.1 g/m*3 25.1 C 6.4 km/h
214 02-07-2014 17:45:00 25.1 C 7.64 g/m*3 25.1 C 8.1 km/h
215 02-07-2014 17:50:00 25.1 C 8.33 g/m*3 25.1 C 8.1 km/h
216 02-07-2014 17:55:00 25.4 C 7.53 g/m*3 25.4 C 8.1 km/h
217 02-07-2014 18:00:00 25.4 C 7.77 g/m*3 25.4 C 9.7 km/h
218 02-07-2014 18:05:00 25.2 C 7.68 g/m*3 25.2 C 9.7 km/h
219 02-07-2014 18:10:00 24.9 C 7.78 g/m*3 24.9 C 11.3 km/h
220 02-07-2014 18:15:00 25 C 8.29 g/m*3 25 C 4.8 km/h
221 02-07-2014 18:20:00 25.2 C 7.45 g/m*3 25.2 C 11.3 km/h
222 02-07-2014 18:25:00 25.1 C 7.41 g/m*3 25.1 C 8.1 km/h
223 02-07-2014 18:30:00 25.1 C 7.64 g/m*3 25.1 C 9.7 km/h
224 02-07-2014 18:35:00 24.8 C 7.97 g/m*3 24.8 C 9.7 km/h
225 02-07-2014 18:40:00 24.8 C 7.74 g/m*3 24.8 C 6.4 km/h
Sensor: Nr:Datum:Temp:Abs-Feuchte:Windchill:Wind:
Aussen-T/F 226 02-07-2014 18:45:00 24.7 C 7.92 g/m*3 24.7 C 6.4 km/h
227 02-07-2014 18:50:00 24.7 C 7.7 g/m*3 24.7 C 11.3 km/h
228 02-07-2014 18:55:00 24.6 C 7.65 g/m*3 24.6 C 8.1 km/h
229 02-07-2014 19:00:00 24.3 C 7.97 g/m*3 24.3 C 8.1 km/h
230 02-07-2014 19:05:00 24.3 C 7.97 g/m*3 24.3 C 9.7 km/h
231 02-07-2014 19:10:00 24.6 C 8.1 g/m*3 24.6 C 11.3 km/h
232 02-07-2014 19:15:00 24.5 C 8.06 g/m*3 24.5 C 11.3 km/h
233 02-07-2014 19:20:00 24.2 C 7.92 g/m*3 24.2 C 6.4 km/h
234 02-07-2014 19:25:00 24 C 7.83 g/m*3 24 C 9.7 km/h
235 02-07-2014 19:30:00 23.7 C 7.7 g/m*3 23.7 C 6.4 km/h
236 02-07-2014 19:35:00 23.6 C 7.44 g/m*3 23.6 C 9.7 km/h
237 02-07-2014 19:40:00 23.4 C 7.36 g/m*3 23.4 C 6.4 km/h
238 02-07-2014 19:45:00 23.4 C 7.36 g/m*3 23.4 C 11.3 km/h
239 02-07-2014 19:50:00 23.3 C 7.32 g/m*3 23.3 C 8.1 km/h
240 02-07-2014 19:55:00 23.2 C 7.48 g/m*3 23.2 C 6.4 km/h
241 02-07-2014 20:00:00 23.1 C 7.44 g/m*3 23.1 C 8.1 km/h
242 02-07-2014 20:05:00 22.9 C 7.77 g/m*3 22.9 C 6.4 km/h
243 02-07-2014 20:10:00 22.9 C 7.77 g/m*3 22.9 C 8.1 km/h
244 02-07-2014 20:15:00 22.8 C 7.92 g/m*3 22.8 C 6.4 km/h
245 02-07-2014 20:20:00 22.7 C 7.88 g/m*3 22.7 C 6.4 km/h
246 02-07-2014 20:25:00 22.6 C 7.63 g/m*3 22.6 C 4.8 km/h
247 02-07-2014 20:30:00 22.4 C 7.94 g/m*3 22.4 C 4.8 km/h
248 02-07-2014 20:35:00 22.3 C 7.9 g/m*3 22.3 C 3.2 km/h
249 02-07-2014 20:40:00 22.2 C 8.05 g/m*3 22.2 C 4.8 km/h
250 02-07-2014 20:45:00 22.1 C 8.59 g/m*3 22.1 C 4.8 km/h
Sensor: Nr:Datum:Temp:Abs-Feuchte:Windchill:Wind:
Aussen-T/F 251 02-07-2014 20:50:00 21.8 C 8.63 g/m*3 21.8 C 1.6 km/h
252 02-07-2014 20:55:00 21.4 C 9 g/m*3 21.4 C 1.6 km/h
253 02-07-2014 21:00:00 20.8 C 8.33 g/m*3 20.8 C 3.2 km/h
254 02-07-2014 21:05:00 20.1 C 9.21 g/m*3 20.1 C 0 km/h
255 02-07-2014 21:10:00 19.3 C 9.79 g/m*3 19.3 C 0 km/h
256 02-07-2014 21:15:00 18.6 C 9.71 g/m*3 18.6 C 1.6 km/h
257 02-07-2014 21:20:00 18.1 C 9.73 g/m*3 18.1 C 0 km/h
258 02-07-2014 21:25:00 17.7 C 9.35 g/m*3 17.7 C 1.6 km/h
259 02-07-2014 21:30:00 17.4 C 9.34 g/m*3 17.4 C 1.6 km/h
260 02-07-2014 21:35:00 17.1 C 9.46 g/m*3 17.1 C 1.6 km/h
261 02-07-2014 21:40:00 16.8 C 9.29 g/m*3 16.8 C 1.6 km/h
262 02-07-2014 21:45:00 16.6 C 9.46 g/m*3 16.6 C 1.6 km/h
263 02-07-2014 21:50:00 16.4 C 9.35 g/m*3 16.4 C 1.6 km/h
264 02-07-2014 21:55:00 16.3 C 9.57 g/m*3 16.3 C 1.6 km/h
265 02-07-2014 22:00:00 16.1 C 9.32 g/m*3 16.1 C 1.6 km/h
266 02-07-2014 22:05:00 16 C 9.26 g/m*3 16 C 1.6 km/h
267 02-07-2014 22:10:00 15.9 C 9.48 g/m*3 15.9 C 1.6 km/h
268 02-07-2014 22:15:00 15.8 C 9.56 g/m*3 15.8 C 0 km/h
269 02-07-2014 22:20:00 15.8 C 9.56 g/m*3 15.8 C 0 km/h
270 02-07-2014 22:25:00 15.7 C 9.5 g/m*3 15.7 C 0 km/h
271 02-07-2014 22:30:00 15.7 C 9.63 g/m*3 15.7 C 0 km/h
272 02-07-2014 22:35:00 15.6 C 9.31 g/m*3 15.6 C 0 km/h
273 02-07-2014 22:40:00 15.6 C 9.58 g/m*3 15.6 C 1.6 km/h
274 02-07-2014 22:45:00 15.5 C 9.39 g/m*3 15.5 C 1.6 km/h
275 02-07-2014 22:50:00 15.4 C 9.46 g/m*3 15.4 C 0 km/h
Sensor: Nr:Datum:Temp:Abs-Feuchte:Windchill:Wind:
Aussen-T/F 276 02-07-2014 22:55:00 15.4 C 9.59 g/m*3 15.4 C 0 km/h
277 02-07-2014 23:00:00 15.3 C 9.53 g/m*3 15.3 C 0 km/h
278 02-07-2014 23:05:00 15.2 C 9.48 g/m*3 15.2 C 0 km/h
279 02-07-2014 23:10:00 15.2 C 9.61 g/m*3 15.2 C 0 km/h
280 02-07-2014 23:15:00 15.1 C 9.55 g/m*3 15.1 C 0 km/h
281 02-07-2014 23:20:00 14.9 C 9.43 g/m*3 14.9 C 0 km/h
282 02-07-2014 23:25:00 14.7 C 9.44 g/m*3 14.7 C 0 km/h
283 02-07-2014 23:30:00 14.5 C 9.58 g/m*3 14.5 C 0 km/h
284 02-07-2014 23:35:00 14.4 C 9.52 g/m*3 14.4 C 0 km/h
285 02-07-2014 23:40:00 14.3 C 9.34 g/m*3 14.3 C 0 km/h
286 02-07-2014 23:45:00 14.3 C 9.34 g/m*3 14.3 C 0 km/h
287 02-07-2014 23:50:00 14.2 C 9.52 g/m*3 14.2 C 0 km/h
288 02-07-2014 23:55:00 14.1 C 9.47 g/m*3 14.1 C 0 km/h
289 03-07-2014 00:00:00 13.9 C 9.23 g/m*3 13.9 C 0 km/h
290 03-07-2014 00:05:00 13.8 C 9.17 g/m*3 13.8 C 0 km/h
291 03-07-2014 00:10:00 13.8 C 9.29 g/m*3 13.8 C 0 km/h
292 03-07-2014 00:15:00 13.7 C 9.35 g/m*3 13.7 C 0 km/h
293 03-07-2014 00:20:00 13.5 C 9.24 g/m*3 13.5 C 0 km/h
294 03-07-2014 00:25:00 13.4 C 9.3 g/m*3 13.4 C 0 km/h
295 03-07-2014 00:30:00 13.3 C 9.13 g/m*3 13.3 C 0 km/h
296 03-07-2014 00:35:00 13.3 C 9.13 g/m*3 13.3 C 0 km/h
297 03-07-2014 00:40:00 13.2 C 9.19 g/m*3 13.2 C 0 km/h
298 03-07-2014 00:45:00 13.2 C 9.07 g/m*3 13.2 C 0 km/h
299 03-07-2014 00:50:00 13.1 C 9.01 g/m*3 13.1 C 0 km/h
300 03-07-2014 00:55:00 13.1 C 9.13 g/m*3 13.1 C 0 km/h
Sensor: Nr:Datum:Temp:Abs-Feuchte:Windchill:Wind:
Aussen-T/F 301 03-07-2014 01:00:00 13 C 8.96 g/m*3 13 C 0 km/h
302 03-07-2014 01:05:00 12.9 C 8.9 g/m*3 12.9 C 0 km/h
303 03-07-2014 01:10:00 12.9 C 8.9 g/m*3 12.9 C 0 km/h
304 03-07-2014 01:15:00 12.8 C 8.96 g/m*3 12.8 C 0 km/h
305 03-07-2014 01:20:00 12.8 C 8.96 g/m*3 12.8 C 0 km/h
306 03-07-2014 01:25:00 12.7 C 9.02 g/m*3 12.7 C 0 km/h
307 03-07-2014 01:30:00 12.6 C 8.96 g/m*3 12.6 C 0 km/h
308 03-07-2014 01:35:00 12.5 C 8.91 g/m*3 12.5 C 0 km/h
309 03-07-2014 01:40:00 12.4 C 8.96 g/m*3 12.4 C 0 km/h
310 03-07-2014 01:45:00 12.3 C 8.9 g/m*3 12.3 C 0 km/h
311 03-07-2014 01:50:00 12.3 C 8.9 g/m*3 12.3 C 0 km/h
312 03-07-2014 01:55:00 12.2 C 8.85 g/m*3 12.2 C 0 km/h
313 03-07-2014 02:00:00 12.1 C 8.9 g/m*3 12.1 C 0 km/h
314 03-07-2014 02:05:00 12 C 8.85 g/m*3 12 C 0 km/h
315 03-07-2014 02:10:00 12 C 8.74 g/m*3 12 C 0 km/h
316 03-07-2014 02:15:00 11.9 C 8.79 g/m*3 11.9 C 0 km/h
317 03-07-2014 02:20:00 11.8 C 8.74 g/m*3 11.8 C 0 km/h
318 03-07-2014 02:25:00 11.8 C 8.84 g/m*3 11.8 C 0 km/h
319 03-07-2014 02:30:00 11.7 C 8.79 g/m*3 11.7 C 0 km/h
320 03-07-2014 02:35:00 11.6 C 8.73 g/m*3 11.6 C 0 km/h
321 03-07-2014 02:40:00 11.6 C 8.83 g/m*3 11.6 C 0 km/h
322 03-07-2014 02:45:00 11.6 C 8.83 g/m*3 11.6 C 0 km/h
323 03-07-2014 02:50:00 11.5 C 8.78 g/m*3 11.5 C 0 km/h
324 03-07-2014 02:55:00 11.5 C 8.78 g/m*3 11.5 C 1.6 km/h
325 03-07-2014 03:00:00 11.4 C 8.72 g/m*3 11.4 C 0 km/h
Sensor: Nr:Datum:Temp:Abs-Feuchte:Windchill:Wind:
Aussen-T/F 326 03-07-2014 03:05:00 11.4 C 8.72 g/m*3 11.4 C 0 km/h
327 03-07-2014 03:10:00 11.3 C 8.77 g/m*3 11.3 C 0 km/h
328 03-07-2014 03:15:00 11.3 C 8.77 g/m*3 11.3 C 0 km/h
329 03-07-2014 03:20:00 11.3 C 8.77 g/m*3 11.3 C 0 km/h
330 03-07-2014 03:25:00 11.2 C 8.72 g/m*3 11.2 C 0 km/h
331 03-07-2014 03:30:00 11.2 C 8.72 g/m*3 11.2 C 0 km/h
332 03-07-2014 03:35:00 11.1 C 8.66 g/m*3 11.1 C 0 km/h
333 03-07-2014 03:40:00 11.1 C 8.66 g/m*3 11.1 C 0 km/h
334 03-07-2014 03:45:00 11 C 8.71 g/m*3 11 C 0 km/h
335 03-07-2014 03:50:00 11 C 8.71 g/m*3 11 C 0 km/h
336 03-07-2014 03:55:00 10.9 C 8.65 g/m*3 10.9 C 0 km/h
337 03-07-2014 04:00:00 10.8 C 8.6 g/m*3 10.8 C 0 km/h
338 03-07-2014 04:05:00 10.8 C 8.6 g/m*3 10.8 C 0 km/h
339 03-07-2014 04:10:00 10.7 C 8.55 g/m*3 10.7 C 0 km/h
340 03-07-2014 04:15:00 10.6 C 8.59 g/m*3 10.6 C 0 km/h
341 03-07-2014 04:20:00 10.5 C 8.53 g/m*3 10.5 C 0 km/h
342 03-07-2014 04:25:00 10.5 C 8.53 g/m*3 10.5 C 0 km/h
343 03-07-2014 04:30:00 10.4 C 8.58 g/m*3 10.4 C 0 km/h
344 03-07-2014 04:35:00 10.3 C 8.52 g/m*3 10.3 C 0 km/h
345 03-07-2014 04:40:00 10.3 C 8.52 g/m*3 10.3 C 0 km/h
346 03-07-2014 04:45:00 10.2 C 8.47 g/m*3 10.2 C 0 km/h
347 03-07-2014 04:50:00 10.1 C 8.51 g/m*3 10.1 C 0 km/h
348 03-07-2014 04:55:00 10.1 C 8.51 g/m*3 10.1 C 0 km/h
349 03-07-2014 05:00:00 10.1 C 8.51 g/m*3 10.1 C 0 km/h
350 03-07-2014 05:05:00 10 C 8.46 g/m*3 10 C 0 km/h
Sensor: Nr:Datum:Temp:Abs-Feuchte:Windchill:Wind:
Aussen-T/F 351 03-07-2014 05:10:00 10 C 8.46 g/m*3 10 C 0 km/h
352 03-07-2014 05:15:00 9.9 C 8.4 g/m*3 9.9 C 0 km/h
353 03-07-2014 05:20:00 9.9 C 8.5 g/m*3 9.9 C 0 km/h
354 03-07-2014 05:25:00 9.8 C 8.44 g/m*3 9.8 C 0 km/h
355 03-07-2014 05:30:00 9.8 C 8.44 g/m*3 9.8 C 0 km/h
356 03-07-2014 05:35:00 9.8 C 8.44 g/m*3 9.8 C 0 km/h
357 03-07-2014 05:40:00 9.8 C 8.44 g/m*3 9.8 C 0 km/h
358 03-07-2014 05:45:00 9.8 C 8.44 g/m*3 9.8 C 0 km/h
359 03-07-2014 05:50:00 9.8 C 8.44 g/m*3 9.8 C 0 km/h
360 03-07-2014 05:55:00 9.7 C 8.48 g/m*3 9.7 C 0 km/h
361 03-07-2014 06:00:00 9.8 C 8.54 g/m*3 9.8 C 0 km/h
362 03-07-2014 06:05:00 9.8 C 8.54 g/m*3 9.8 C 0 km/h
363 03-07-2014 06:10:00 9.8 C 8.54 g/m*3 9.8 C 1.6 km/h
364 03-07-2014 06:15:00 9.8 C 8.54 g/m*3 9.8 C 0 km/h
365 03-07-2014 06:20:00 9.8 C 8.54 g/m*3 9.8 C 0 km/h
366 03-07-2014 06:25:00 9.8 C 8.54 g/m*3 9.8 C 0 km/h
367 03-07-2014 06:30:00 9.8 C 8.54 g/m*3 9.8 C 0 km/h
368 03-07-2014 06:35:00 9.9 C 8.59 g/m*3 9.9 C 0 km/h
369 03-07-2014 06:40:00 9.9 C 8.59 g/m*3 9.9 C 0 km/h
370 03-07-2014 06:45:00 9.9 C 8.59 g/m*3 9.9 C 0 km/h
371 03-07-2014 06:50:00 9.9 C 8.59 g/m*3 9.9 C 0 km/h
372 03-07-2014 06:55:00 10 C 8.64 g/m*3 10 C 0 km/h
373 03-07-2014 07:00:00 10.1 C 8.7 g/m*3 10.1 C 0 km/h
374 03-07-2014 07:05:00 10.2 C 8.76 g/m*3 10.2 C 0 km/h
375 03-07-2014 07:10:00 10.2 C 8.76 g/m*3 10.2 C 0 km/h
Sensor: Nr:Datum:Temp:Abs-Feuchte:Windchill:Wind:
Aussen-T/F 376 03-07-2014 07:15:00 10.3 C 8.81 g/m*3 10.3 C 0 km/h
377 03-07-2014 07:20:00 10.4 C 8.87 g/m*3 10.4 C 0 km/h
378 03-07-2014 07:25:00 10.4 C 8.87 g/m*3 10.4 C 0 km/h
379 03-07-2014 07:30:00 10.5 C 8.92 g/m*3 10.5 C 0 km/h
380 03-07-2014 07:35:00 10.6 C 8.98 g/m*3 10.6 C 0 km/h
381 03-07-2014 07:40:00 10.6 C 8.98 g/m*3 10.6 C 0 km/h
382 03-07-2014 07:45:00 10.7 C 9.04 g/m*3 10.7 C 0 km/h
383 03-07-2014 07:50:00 10.8 C 9.09 g/m*3 10.8 C 0 km/h
384 03-07-2014 07:55:00 11.1 C 9.27 g/m*3 11.1 C 0 km/h
385 03-07-2014 08:00:00 11.4 C 9.34 g/m*3 11.4 C 0 km/h
386 03-07-2014 08:05:00 11.8 C 9.37 g/m*3 11.8 C 0 km/h
387 03-07-2014 08:10:00 12.2 C 9.5 g/m*3 12.2 C 0 km/h
388 03-07-2014 08:15:00 12.5 C 9.57 g/m*3 12.5 C 0 km/h
389 03-07-2014 08:20:00 12.8 C 9.63 g/m*3 12.8 C 0 km/h
390 03-07-2014 08:25:00 13.2 C 9.76 g/m*3 13.2 C 0 km/h
391 03-07-2014 08:30:00 13.6 C 9.77 g/m*3 13.6 C 0 km/h
392 03-07-2014 08:35:00 13.8 C 9.65 g/m*3 13.8 C 0 km/h
393 03-07-2014 08:40:00 13.9 C 9.71 g/m*3 13.9 C 0 km/h
394 03-07-2014 08:45:00 14.1 C 9.71 g/m*3 14.1 C 0 km/h
395 03-07-2014 08:50:00 14.3 C 9.95 g/m*3 14.3 C 0 km/h
396 03-07-2014 08:55:00 14.6 C 10.01 g/m*3 14.6 C 0 km/h
397 03-07-2014 09:00:00 14.7 C 9.95 g/m*3 14.7 C 0 km/h
398 03-07-2014 09:05:00 14.8 C 10.13 g/m*3 14.8 C 0 km/h
399 03-07-2014 09:10:00 15 C 10.26 g/m*3 15 C 0 km/h
400 03-07-2014 09:15:00 15.1 C 10.19 g/m*3 15.1 C 0 km/h
Sensor: Nr:Datum:Temp:Abs-Feuchte:Windchill:Wind:
Aussen-T/F 401 03-07-2014 09:20:00 15 C 10.26 g/m*3 15 C 0 km/h
402 03-07-2014 09:25:00 14.9 C 10.2 g/m*3 14.9 C 0 km/h
403 03-07-2014 09:30:00 14.9 C 10.32 g/m*3 14.9 C 0 km/h
404 03-07-2014 09:35:00 14.9 C 10.32 g/m*3 14.9 C 0 km/h
405 03-07-2014 09:40:00 14.9 C 10.45 g/m*3 14.9 C 0 km/h
406 03-07-2014 09:45:00 15 C 10.77 g/m*3 15 C 0 km/h
407 03-07-2014 09:50:00 15.2 C 10.77 g/m*3 15.2 C 0 km/h
408 03-07-2014 09:55:00 15.4 C 10.9 g/m*3 15.4 C 0 km/h
409 03-07-2014 10:00:00 15.8 C 11.17 g/m*3 15.8 C 0 km/h
410 03-07-2014 10:05:00 16.3 C 11.38 g/m*3 16.3 C 0 km/h
411 03-07-2014 10:10:00 16.7 C 11.51 g/m*3 16.7 C 0 km/h
412 03-07-2014 10:15:00 17 C 11.43 g/m*3 17 C 0 km/h
413 03-07-2014 10:20:00 17.3 C 11.49 g/m*3 17.3 C 0 km/h
414 03-07-2014 10:25:00 17.7 C 11.62 g/m*3 17.7 C 1.6 km/h
415 03-07-2014 10:30:00 17.9 C 11.76 g/m*3 17.9 C 1.6 km/h
416 03-07-2014 10:35:00 18.2 C 11.81 g/m*3 18.2 C 1.6 km/h
417 03-07-2014 10:40:00 18.3 C 11.73 g/m*3 18.3 C 1.6 km/h
418 03-07-2014 10:45:00 18.6 C 11.94 g/m*3 18.6 C 1.6 km/h
419 03-07-2014 10:50:00 18.8 C 11.92 g/m*3 18.8 C 0 km/h
420 03-07-2014 10:55:00 19.1 C 11.97 g/m*3 19.1 C 3.2 km/h
421 03-07-2014 11:00:00 19.4 C 12.18 g/m*3 19.4 C 3.2 km/h
422 03-07-2014 11:05:00 19.7 C 12.06 g/m*3 19.7 C 0 km/h
423 03-07-2014 11:10:00 19.9 C 12.37 g/m*3 19.9 C 0 km/h
424 03-07-2014 11:15:00 20.3 C 11.61 g/m*3 20.3 C 3.2 km/h
425 03-07-2014 11:20:00 20.6 C 12.53 g/m*3 20.6 C 1.6 km/h
Sensor: Nr:Datum:Temp:Abs-Feuchte:Windchill:Wind:
Aussen-T/F 426 03-07-2014 11:25:00 21 C 11.36 g/m*3 21 C 3.2 km/h
427 03-07-2014 11:30:00 21.8 C 10.36 g/m*3 21.8 C 6.4 km/h
428 03-07-2014 11:35:00 22.5 C 10.39 g/m*3 22.5 C 6.4 km/h
429 03-07-2014 11:40:00 23.1 C 10.34 g/m*3 23.1 C 4.8 km/h
430 03-07-2014 11:45:00 23.4 C 10.09 g/m*3 23.4 C 6.4 km/h
431 03-07-2014 11:50:00 23.6 C 10.85 g/m*3 23.6 C 4.8 km/h
432 03-07-2014 11:55:00 23.9 C 9.74 g/m*3 23.9 C 8.1 km/h
433 03-07-2014 12:00:00 24.3 C 9.74 g/m*3 24.3 C 9.7 km/h
434 03-07-2014 12:05:00 24.8 C 9.33 g/m*3 24.8 C 8.1 km/h
435 03-07-2014 12:10:00 25.1 C 9.49 g/m*3 25.1 C 14.5 km/h
436 03-07-2014 12:15:00 25.3 C 8.9 g/m*3 25.3 C 12.9 km/h
437 03-07-2014 12:20:00 25.4 C 8.48 g/m*3 25.4 C 8.1 km/h
438 03-07-2014 12:25:00 25.5 C 9.47 g/m*3 25.5 C 9.7 km/h
439 03-07-2014 12:30:00 25.7 C 9.1 g/m*3 25.7 C 6.4 km/h
440 03-07-2014 12:35:00 25.8 C 8.19 g/m*3 25.8 C 14.5 km/h
441 03-07-2014 12:40:00 25.8 C 7.94 g/m*3 25.8 C 9.7 km/h
442 03-07-2014 12:45:00 26 C 8.28 g/m*3 26 C 11.3 km/h
443 03-07-2014 12:50:00 26.2 C 8.86 g/m*3 26.2 C 8.1 km/h
444 03-07-2014 12:55:00 26.4 C 8.46 g/m*3 26.4 C 14.5 km/h
445 03-07-2014 13:00:00 26.6 C 8.31 g/m*3 26.6 C 11.3 km/h
446 03-07-2014 13:05:00 26.7 C 8.61 g/m*3 26.7 C 12.9 km/h
447 03-07-2014 13:10:00 26.8 C 8.65 g/m*3 26.8 C 11.3 km/h
448 03-07-2014 13:15:00 26.8 C 8.91 g/m*3 26.8 C 8.1 km/h
449 03-07-2014 13:20:00 27.1 C 8.54 g/m*3 27.1 C 8.1 km/h
450 03-07-2014 13:25:00 26.9 C 8.96 g/m*3 26.9 C 14.5 km/h
Sensor: Nr:Datum:Temp:Abs-Feuchte:Windchill:Wind:
Aussen-T/F 451 03-07-2014 13:30:00 26.9 C 8.96 g/m*3 26.9 C 11.3 km/h
452 03-07-2014 13:35:00 27.1 C 9.32 g/m*3 27.1 C 9.7 km/h
453 03-07-2014 13:40:00 27.3 C 8.9 g/m*3 27.3 C 12.9 km/h
454 03-07-2014 13:45:00 27.3 C 9.16 g/m*3 27.3 C 9.7 km/h
455 03-07-2014 13:50:00 27.4 C 9.21 g/m*3 27.4 C 8.1 km/h
456 03-07-2014 13:55:00 27.6 C 8.51 g/m*3 27.6 C 12.9 km/h
457 03-07-2014 14:00:00 27.6 C 8.51 g/m*3 27.6 C 8.1 km/h
458 03-07-2014 14:05:00 27.7 C 8.83 g/m*3 27.7 C 11.3 km/h
459 03-07-2014 14:10:00 27.7 C 8.83 g/m*3 27.7 C 19.3 km/h
460 03-07-2014 14:15:00 27.8 C 9.41 g/m*3 27.8 C 4.8 km/h
461 03-07-2014 14:20:00 28 C 10.06 g/m*3 28 C 9.7 km/h
462 03-07-2014 14:25:00 28.1 C 8.48 g/m*3 28.1 C 16.1 km/h
463 03-07-2014 14:30:00 28.1 C 8.75 g/m*3 28.1 C 16.1 km/h
464 03-07-2014 14:35:00 28.1 C 9.02 g/m*3 28.1 C 12.9 km/h
465 03-07-2014 14:40:00 28.3 C 8.85 g/m*3 28.3 C 9.7 km/h
466 03-07-2014 14:45:00 28.6 C 8.71 g/m*3 28.6 C 16.1 km/h
467 03-07-2014 14:50:00 28.7 C 8.19 g/m*3 28.7 C 8.1 km/h
468 03-07-2014 14:55:00 28.8 C 8.81 g/m*3 28.8 C 9.7 km/h
469 03-07-2014 15:00:00 29.1 C 8.66 g/m*3 29.1 C 6.4 km/h
470 03-07-2014 15:05:00 28.9 C 8.86 g/m*3 28.9 C 12.9 km/h
471 03-07-2014 15:10:00 28.6 C 8.43 g/m*3 28.6 C 14.5 km/h
472 03-07-2014 15:15:00 28.9 C 8.57 g/m*3 28.9 C 12.9 km/h
473 03-07-2014 15:20:00 29.1 C 8.38 g/m*3 29.1 C 12.9 km/h
474 03-07-2014 15:25:00 29.1 C 8.09 g/m*3 29.1 C 12.9 km/h
475 03-07-2014 15:30:00 29 C 7.76 g/m*3 29 C 16.1 km/h
Sensor: Nr:Datum:Temp:Abs-Feuchte:Windchill:Wind:
Aussen-T/F 476 03-07-2014 15:35:00 29.2 C 7.55 g/m*3 29.2 C 14.5 km/h
477 03-07-2014 15:40:00 29.4 C 7.63 g/m*3 29.4 C 11.3 km/h
478 03-07-2014 15:45:00 29.5 C 7.97 g/m*3 29.5 C 12.9 km/h
479 03-07-2014 15:50:00 29.5 C 8.26 g/m*3 29.5 C 8.1 km/h
480 03-07-2014 15:55:00 29.7 C 8.06 g/m*3 29.7 C 14.5 km/h
481 03-07-2014 16:00:00 29.7 C 8.35 g/m*3 29.7 C 12.9 km/h
482 03-07-2014 16:05:00 29.8 C 8.1 g/m*3 29.8 C 11.3 km/h
483 03-07-2014 16:10:00 29.9 C 7.54 g/m*3 29.9 C 12.9 km/h
484 03-07-2014 16:15:00 30 C 8.19 g/m*3 30 C 9.7 km/h
485 03-07-2014 16:20:00 30.2 C 7.97 g/m*3 30.2 C 14.5 km/h
486 03-07-2014 16:25:00 29.9 C 7.24 g/m*3 29.9 C 16.1 km/h
487 03-07-2014 16:30:00 30 C 8.19 g/m*3 30 C 6.4 km/h
488 03-07-2014 16:35:00 29.9 C 7.24 g/m*3 29.9 C 8.1 km/h
489 03-07-2014 16:40:00 30.1 C 7.62 g/m*3 30.1 C 17.7 km/h
490 03-07-2014 16:45:00 30.1 C 7.62 g/m*3 30.1 C 14.5 km/h
491 03-07-2014 16:50:00 29.9 C 7.84 g/m*3 29.9 C 9.7 km/h
492 03-07-2014 16:55:00 30.1 C 7.93 g/m*3 30.1 C 11.3 km/h
493 03-07-2014 17:00:00 30.1 C 7.93 g/m*3 30.1 C 14.5 km/h
494 03-07-2014 17:05:00 30.3 C 8.32 g/m*3 30.3 C 9.7 km/h
495 03-07-2014 17:10:00 30.5 C 8.1 g/m*3 30.5 C 8.1 km/h
496 03-07-2014 17:15:00 30.6 C 8.14 g/m*3 30.6 C 11.3 km/h
497 03-07-2014 17:20:00 30.5 C 7.79 g/m*3 30.5 C 12.9 km/h
498 03-07-2014 17:25:00 30.5 C 7.48 g/m*3 30.5 C 9.7 km/h
499 03-07-2014 17:30:00 30.2 C 7.66 g/m*3 30.2 C 6.4 km/h
500 03-07-2014 17:35:00 30.3 C 8.01 g/m*3 30.3 C 6.4 km/h
Sensor: Nr:Datum:Temp:Abs-Feuchte:Windchill:Wind:
Aussen-T/F 501 03-07-2014 17:40:00 30.3 C 8.01 g/m*3 30.3 C 8.1 km/h
502 03-07-2014 17:45:00 30.5 C 8.1 g/m*3 30.5 C 12.9 km/h
503 03-07-2014 17:50:00 30.8 C 7.6 g/m*3 30.8 C 9.7 km/h
504 03-07-2014 17:55:00 31.1 C 8.04 g/m*3 31.1 C 12.9 km/h
505 03-07-2014 18:00:00 31.2 C 7.76 g/m*3 31.2 C 8.1 km/h
506 03-07-2014 18:05:00 30.9 C 7.32 g/m*3 30.9 C 17.7 km/h
507 03-07-2014 18:10:00 30.7 C 7.56 g/m*3 30.7 C 9.7 km/h
508 03-07-2014 18:15:00 30.6 C 6.89 g/m*3 30.6 C 14.5 km/h
509 03-07-2014 18:20:00 30.8 C 7.28 g/m*3 30.8 C 9.7 km/h
510 03-07-2014 18:25:00 30.8 C 6.97 g/m*3 30.8 C 9.7 km/h
511 03-07-2014 18:30:00 30.8 C 7.28 g/m*3 30.8 C 9.7 km/h
512 03-07-2014 18:35:00 30.7 C 6.61 g/m*3 30.7 C 14.5 km/h
513 03-07-2014 18:40:00 30.7 C 6.61 g/m*3 30.7 C 14.5 km/h
514 03-07-2014 18:45:00 30.4 C 6.82 g/m*3 30.4 C 14.5 km/h
515 03-07-2014 18:50:00 30.3 C 7.09 g/m*3 30.3 C 9.7 km/h
516 03-07-2014 18:55:00 30.3 C 6.78 g/m*3 30.3 C 11.3 km/h
517 03-07-2014 19:00:00 30.3 C 7.4 g/m*3 30.3 C 9.7 km/h
518 03-07-2014 19:05:00 30.3 C 7.09 g/m*3 30.3 C 9.7 km/h
519 03-07-2014 19:10:00 30.3 C 7.4 g/m*3 30.3 C 16.1 km/h
520 03-07-2014 19:15:00 30.2 C 7.36 g/m*3 30.2 C 9.7 km/h
521 03-07-2014 19:20:00 30.1 C 8.23 g/m*3 30.1 C 6.4 km/h
522 03-07-2014 19:25:00 29.8 C 7.5 g/m*3 29.8 C 11.3 km/h
523 03-07-2014 19:30:00 29.6 C 7.12 g/m*3 29.6 C 11.3 km/h
524 03-07-2014 19:35:00 29.3 C 7.01 g/m*3 29.3 C 9.7 km/h
525 03-07-2014 19:40:00 29 C 6.89 g/m*3 29 C 14.5 km/h
Sensor: Nr:Datum:Temp:Abs-Feuchte:Windchill:Wind:
Aussen-T/F 526 03-07-2014 19:45:00 28.8 C 7.39 g/m*3 28.8 C 12.9 km/h
527 03-07-2014 19:50:00 28.6 C 7.03 g/m*3 28.6 C 9.7 km/h
528 03-07-2014 19:55:00 28.4 C 7.78 g/m*3 28.4 C 9.7 km/h
529 03-07-2014 20:00:00 28.3 C 7.46 g/m*3 28.3 C 6.4 km/h
530 03-07-2014 20:05:00 28.1 C 7.38 g/m*3 28.1 C 12.9 km/h
531 03-07-2014 20:10:00 28 C 7.89 g/m*3 28 C 8.1 km/h
532 03-07-2014 20:15:00 27.8 C 7.26 g/m*3 27.8 C 3.2 km/h
533 03-07-2014 20:20:00 27.7 C 7.49 g/m*3 27.7 C 8.1 km/h
534 03-07-2014 20:25:00 27.4 C 8.16 g/m*3 27.4 C 6.4 km/h
535 03-07-2014 20:30:00 27.2 C 8.33 g/m*3 27.2 C 3.2 km/h
536 03-07-2014 20:35:00 26.8 C 9.42 g/m*3 26.8 C 1.6 km/h
537 03-07-2014 20:40:00 26.2 C 10.09 g/m*3 26.2 C 0 km/h
538 03-07-2014 20:45:00 25.6 C 10.24 g/m*3 25.6 C 1.6 km/h
539 03-07-2014 20:50:00 25 C 9.67 g/m*3 25 C 0 km/h
540 03-07-2014 20:55:00 24.4 C 10.24 g/m*3 24.4 C 0 km/h
541 03-07-2014 21:00:00 23.9 C 9.95 g/m*3 23.9 C 1.6 km/h
542 03-07-2014 21:05:00 23.5 C 10.15 g/m*3 23.5 C 1.6 km/h
543 03-07-2014 21:10:00 23.1 C 10.34 g/m*3 23.1 C 1.6 km/h
544 03-07-2014 21:15:00 22.7 C 10.1 g/m*3 22.7 C 3.2 km/h
545 03-07-2014 21:20:00 22.3 C 9.87 g/m*3 22.3 C 3.2 km/h
546 03-07-2014 21:25:00 22.1 C 9.96 g/m*3 22.1 C 3.2 km/h
547 03-07-2014 21:30:00 21.8 C 9.78 g/m*3 21.8 C 1.6 km/h
548 03-07-2014 21:35:00 21.6 C 9.67 g/m*3 21.6 C 1.6 km/h
549 03-07-2014 21:40:00 21.5 C 9.81 g/m*3 21.5 C 1.6 km/h
550 03-07-2014 21:45:00 21.3 C 9.69 g/m*3 21.3 C 3.2 km/h
Sensor: Nr:Datum:Temp:Abs-Feuchte:Windchill:Wind:
Aussen-T/F 551 03-07-2014 21:50:00 21.2 C 9.82 g/m*3 21.2 C 1.6 km/h
552 03-07-2014 21:55:00 21 C 9.71 g/m*3 21 C 3.2 km/h
553 03-07-2014 22:00:00 20.9 C 9.83 g/m*3 20.9 C 1.6 km/h
554 03-07-2014 22:05:00 20.7 C 9.54 g/m*3 20.7 C 1.6 km/h
555 03-07-2014 22:10:00 20.6 C 9.66 g/m*3 20.6 C 1.6 km/h
556 03-07-2014 22:15:00 20.4 C 9.73 g/m*3 20.4 C 1.6 km/h
557 03-07-2014 22:20:00 20.3 C 10.2 g/m*3 20.3 C 1.6 km/h
558 03-07-2014 22:25:00 20.2 C 9.79 g/m*3 20.2 C 0 km/h
559 03-07-2014 22:30:00 19.9 C 10.14 g/m*3 19.9 C 0 km/h
560 03-07-2014 22:35:00 19.7 C 10.02 g/m*3 19.7 C 0 km/h
561 03-07-2014 22:40:00 19.3 C 9.95 g/m*3 19.3 C 0 km/h
562 03-07-2014 22:45:00 19.2 C 10.06 g/m*3 19.2 C 0 km/h
563 03-07-2014 22:50:00 19.1 C 9.84 g/m*3 19.1 C 3.2 km/h
564 03-07-2014 22:55:00 19.2 C 9.73 g/m*3 19.2 C 6.4 km/h
565 03-07-2014 23:00:00 19.2 C 10.22 g/m*3 19.2 C 3.2 km/h
566 03-07-2014 23:05:00 19.1 C 10.16 g/m*3 19.1 C 3.2 km/h
567 03-07-2014 23:10:00 19.1 C 9.67 g/m*3 19.1 C 4.8 km/h
568 03-07-2014 23:15:00 19 C 9.94 g/m*3 19 C 1.6 km/h
569 03-07-2014 23:20:00 18.8 C 9.99 g/m*3 18.8 C 0 km/h
570 03-07-2014 23:25:00 18.4 C 9.91 g/m*3 18.4 C 0 km/h
571 03-07-2014 23:30:00 18.1 C 10.04 g/m*3 18.1 C 0 km/h
572 03-07-2014 23:35:00 17.8 C 9.71 g/m*3 17.8 C 0 km/h
573 03-07-2014 23:40:00 17.8 C 9.87 g/m*3 17.8 C 0 km/h
574 03-07-2014 23:45:00 17.7 C 9.96 g/m*3 17.7 C 0 km/h
575 03-07-2014 23:50:00 17.6 C 9.9 g/m*3 17.6 C 0 km/h
Sensor: Nr:Datum:Temp:Abs-Feuchte:Windchill:Wind:
Aussen-T/F 576 03-07-2014 23:55:00 17.4 C 10.08 g/m*3 17.4 C 0 km/h
577 04-07-2014 00:00:00 17.3 C 9.87 g/m*3 17.3 C 0 km/h
578 04-07-2014 00:05:00 17.2 C 9.81 g/m*3 17.2 C 0 km/h
579 04-07-2014 00:10:00 17.1 C 9.9 g/m*3 17.1 C 0 km/h
580 04-07-2014 00:15:00 17.1 C 9.75 g/m*3 17.1 C 0 km/h
581 04-07-2014 00:20:00 17 C 9.84 g/m*3 17 C 0 km/h
582 04-07-2014 00:25:00 16.9 C 9.78 g/m*3 16.9 C 0 km/h
583 04-07-2014 00:30:00 16.9 C 9.92 g/m*3 16.9 C 0 km/h
584 04-07-2014 00:35:00 16.8 C 10.01 g/m*3 16.8 C 0 km/h
585 04-07-2014 00:40:00 16.7 C 9.81 g/m*3 16.7 C 0 km/h
586 04-07-2014 00:45:00 16.6 C 9.75 g/m*3 16.6 C 0 km/h
587 04-07-2014 00:50:00 16.5 C 9.69 g/m*3 16.5 C 0 km/h
588 04-07-2014 00:55:00 16.3 C 9.71 g/m*3 16.3 C 0 km/h
589 04-07-2014 01:00:00 16.3 C 9.85 g/m*3 16.3 C 0 km/h
590 04-07-2014 01:05:00 16.1 C 9.73 g/m*3 16.1 C 0 km/h
591 04-07-2014 01:10:00 16.1 C 9.73 g/m*3 16.1 C 0 km/h
592 04-07-2014 01:15:00 15.9 C 9.75 g/m*3 15.9 C 0 km/h
593 04-07-2014 01:20:00 15.9 C 9.75 g/m*3 15.9 C 0 km/h
594 04-07-2014 01:25:00 15.8 C 9.69 g/m*3 15.8 C 0 km/h
595 04-07-2014 01:30:00 15.7 C 9.77 g/m*3 15.7 C 0 km/h
596 04-07-2014 01:35:00 15.6 C 9.71 g/m*3 15.6 C 0 km/h
597 04-07-2014 01:40:00 15.4 C 9.72 g/m*3 15.4 C 0 km/h
598 04-07-2014 01:45:00 15.3 C 9.79 g/m*3 15.3 C 0 km/h
599 04-07-2014 01:50:00 15.2 C 9.73 g/m*3 15.2 C 0 km/h
600 04-07-2014 01:55:00 15.1 C 9.68 g/m*3 15.1 C 0 km/h
Sensor: Nr:Datum:Temp:Abs-Feuchte:Windchill:Wind:
Aussen-T/F 601 04-07-2014 02:00:00 15 C 9.62 g/m*3 15 C 0 km/h
602 04-07-2014 02:05:00 14.9 C 9.56 g/m*3 14.9 C 0 km/h
603 04-07-2014 02:10:00 14.8 C 9.5 g/m*3 14.8 C 0 km/h
604 04-07-2014 02:15:00 14.8 C 9.63 g/m*3 14.8 C 0 km/h
605 04-07-2014 02:20:00 14.7 C 9.57 g/m*3 14.7 C 0 km/h
606 04-07-2014 02:25:00 14.6 C 9.64 g/m*3 14.6 C 0 km/h
607 04-07-2014 02:30:00 14.6 C 9.64 g/m*3 14.6 C 0 km/h
608 04-07-2014 02:35:00 14.4 C 9.52 g/m*3 14.4 C 0 km/h
609 04-07-2014 02:40:00 14.3 C 9.58 g/m*3 14.3 C 0 km/h
610 04-07-2014 02:45:00 14.3 C 9.58 g/m*3 14.3 C 0 km/h
611 04-07-2014 02:50:00 14.3 C 9.58 g/m*3 14.3 C 0 km/h
612 04-07-2014 02:55:00 14.3 C 9.71 g/m*3 14.3 C 0 km/h
613 04-07-2014 03:00:00 14.2 C 9.52 g/m*3 14.2 C 0 km/h
614 04-07-2014 03:05:00 14.2 C 9.65 g/m*3 14.2 C 0 km/h
615 04-07-2014 03:10:00 14.2 C 9.77 g/m*3 14.2 C 0 km/h
616 04-07-2014 03:15:00 14 C 9.65 g/m*3 14 C 0 km/h
617 04-07-2014 03:20:00 13.8 C 9.65 g/m*3 13.8 C 0 km/h
618 04-07-2014 03:25:00 13.8 C 9.65 g/m*3 13.8 C 0 km/h
619 04-07-2014 03:30:00 13.7 C 9.59 g/m*3 13.7 C 0 km/h
620 04-07-2014 03:35:00 13.6 C 9.53 g/m*3 13.6 C 0 km/h
621 04-07-2014 03:40:00 13.5 C 9.47 g/m*3 13.5 C 0 km/h
622 04-07-2014 03:45:00 13.5 C 9.47 g/m*3 13.5 C 0 km/h
623 04-07-2014 03:50:00 13.4 C 9.53 g/m*3 13.4 C 0 km/h
624 04-07-2014 03:55:00 13.4 C 9.53 g/m*3 13.4 C 0 km/h
625 04-07-2014 04:00:00 13.4 C 9.53 g/m*3 13.4 C 0 km/h
Sensor: Nr:Datum:Temp:Abs-Feuchte:Windchill:Wind:
Aussen-T/F 626 04-07-2014 04:05:00 13.3 C 9.47 g/m*3 13.3 C 0 km/h
627 04-07-2014 04:10:00 13.3 C 9.59 g/m*3 13.3 C 0 km/h
628 04-07-2014 04:15:00 13.3 C 9.59 g/m*3 13.3 C 0 km/h
629 04-07-2014 04:20:00 13.3 C 9.59 g/m*3 13.3 C 3.2 km/h
630 04-07-2014 04:25:00 13.4 C 9.65 g/m*3 13.4 C 0 km/h
631 04-07-2014 04:30:00 13.3 C 9.59 g/m*3 13.3 C 0 km/h
632 04-07-2014 04:35:00 13.3 C 9.59 g/m*3 13.3 C 0 km/h
633 04-07-2014 04:40:00 13.2 C 9.53 g/m*3 13.2 C 1.6 km/h
634 04-07-2014 04:45:00 13.1 C 9.59 g/m*3 13.1 C 0 km/h
635 04-07-2014 04:50:00 13.1 C 9.59 g/m*3 13.1 C 0 km/h
636 04-07-2014 04:55:00 13 C 9.53 g/m*3 13 C 0 km/h
637 04-07-2014 05:00:00 12.9 C 9.47 g/m*3 12.9 C 0 km/h
638 04-07-2014 05:05:00 12.9 C 9.47 g/m*3 12.9 C 0 km/h
639 04-07-2014 05:10:00 12.8 C 9.52 g/m*3 12.8 C 0 km/h
640 04-07-2014 05:15:00 12.7 C 9.46 g/m*3 12.7 C 0 km/h
641 04-07-2014 05:20:00 12.7 C 9.57 g/m*3 12.7 C 0 km/h
642 04-07-2014 05:25:00 12.6 C 9.51 g/m*3 12.6 C 0 km/h
643 04-07-2014 05:30:00 12.5 C 9.57 g/m*3 12.5 C 1.6 km/h
644 04-07-2014 05:35:00 12.4 C 9.51 g/m*3 12.4 C 0 km/h
645 04-07-2014 05:40:00 12.4 C 9.51 g/m*3 12.4 C 0 km/h
646 04-07-2014 05:45:00 12.4 C 9.51 g/m*3 12.4 C 0 km/h
647 04-07-2014 05:50:00 12.3 C 9.45 g/m*3 12.3 C 0 km/h
648 04-07-2014 05:55:00 12.3 C 9.45 g/m*3 12.3 C 0 km/h
649 04-07-2014 06:00:00 12.3 C 9.45 g/m*3 12.3 C 0 km/h
650 04-07-2014 06:05:00 12.3 C 9.56 g/m*3 12.3 C 0 km/h
Sensor: Nr:Datum:Temp:Abs-Feuchte:Windchill:Wind:
Aussen-T/F 651 04-07-2014 06:10:00 12.3 C 9.56 g/m*3 12.3 C 0 km/h
652 04-07-2014 06:15:00 12.3 C 9.56 g/m*3 12.3 C 0 km/h
653 04-07-2014 06:20:00 12.2 C 9.5 g/m*3 12.2 C 0 km/h
654 04-07-2014 06:25:00 12.2 C 9.5 g/m*3 12.2 C 0 km/h
655 04-07-2014 06:30:00 12.3 C 9.66 g/m*3 12.3 C 0 km/h
656 04-07-2014 06:35:00 12.3 C 9.66 g/m*3 12.3 C 0 km/h
657 04-07-2014 06:40:00 12.3 C 9.66 g/m*3 12.3 C 0 km/h
658 04-07-2014 06:45:00 12.3 C 9.66 g/m*3 12.3 C 0 km/h
659 04-07-2014 06:50:00 12.4 C 9.62 g/m*3 12.4 C 0 km/h
660 04-07-2014 06:55:00 12.5 C 9.68 g/m*3 12.5 C 0 km/h
661 04-07-2014 07:00:00 12.6 C 9.85 g/m*3 12.6 C 0 km/h
662 04-07-2014 07:05:00 12.6 C 9.85 g/m*3 12.6 C 0 km/h
663 04-07-2014 07:10:00 12.7 C 9.91 g/m*3 12.7 C 0 km/h
664 04-07-2014 07:15:00 12.7 C 9.8 g/m*3 12.7 C 0 km/h
665 04-07-2014 07:20:00 12.8 C 9.97 g/m*3 12.8 C 0 km/h
666 04-07-2014 07:25:00 12.9 C 10.03 g/m*3 12.9 C 0 km/h
667 04-07-2014 07:30:00 13 C 9.98 g/m*3 13 C 0 km/h
668 04-07-2014 07:35:00 13.1 C 10.16 g/m*3 13.1 C 0 km/h
669 04-07-2014 07:40:00 13.2 C 10.1 g/m*3 13.2 C 0 km/h
670 04-07-2014 07:45:00 13.3 C 10.28 g/m*3 13.3 C 0 km/h
671 04-07-2014 07:50:00 13.4 C 10.23 g/m*3 13.4 C 0 km/h
672 04-07-2014 07:55:00 13.7 C 10.3 g/m*3 13.7 C 0 km/h
673 04-07-2014 08:00:00 14.1 C 10.56 g/m*3 14.1 C 0 km/h
674 04-07-2014 08:05:00 14.4 C 10.51 g/m*3 14.4 C 0 km/h
675 04-07-2014 08:10:00 14.8 C 10.77 g/m*3 14.8 C 0 km/h
Sensor: Nr:Datum:Temp:Abs-Feuchte:Windchill:Wind:
Aussen-T/F 676 04-07-2014 08:15:00 15.2 C 10.9 g/m*3 15.2 C 0 km/h
677 04-07-2014 08:20:00 15.6 C 10.77 g/m*3 15.6 C 0 km/h
678 04-07-2014 08:25:00 15.9 C 10.83 g/m*3 15.9 C 0 km/h
679 04-07-2014 08:30:00 16.2 C 10.89 g/m*3 16.2 C 0 km/h
680 04-07-2014 08:35:00 16.5 C 10.95 g/m*3 16.5 C 0 km/h
681 04-07-2014 08:40:00 16.8 C 11.15 g/m*3 16.8 C 0 km/h
682 04-07-2014 08:45:00 17.2 C 11.13 g/m*3 17.2 C 0 km/h
683 04-07-2014 08:50:00 17.3 C 11.2 g/m*3 17.3 C 0 km/h
684 04-07-2014 08:55:00 17.5 C 11.18 g/m*3 17.5 C 0 km/h
685 04-07-2014 09:00:00 17.6 C 11.1 g/m*3 17.6 C 0 km/h
686 04-07-2014 09:05:00 17.8 C 11.23 g/m*3 17.8 C 0 km/h
687 04-07-2014 09:10:00 17.9 C 11.3 g/m*3 17.9 C 0 km/h
688 04-07-2014 09:15:00 17.9 C 11.3 g/m*3 17.9 C 0 km/h
689 04-07-2014 09:20:00 17.8 C 11.38 g/m*3 17.8 C 0 km/h
690 04-07-2014 09:25:00 17.7 C 11.62 g/m*3 17.7 C 0 km/h
691 04-07-2014 09:30:00 17.7 C 11.62 g/m*3 17.7 C 0 km/h
692 04-07-2014 09:35:00 17.9 C 11.45 g/m*3 17.9 C 0 km/h
693 04-07-2014 09:40:00 18.1 C 11.9 g/m*3 18.1 C 0 km/h
694 04-07-2014 09:45:00 18.1 C 11.9 g/m*3 18.1 C 0 km/h
695 04-07-2014 09:50:00 18.2 C 11.97 g/m*3 18.2 C 0 km/h
696 04-07-2014 09:55:00 18.3 C 12.2 g/m*3 18.3 C 0 km/h
697 04-07-2014 10:00:00 18.7 C 12.33 g/m*3 18.7 C 0 km/h
698 04-07-2014 10:05:00 19.2 C 12.37 g/m*3 19.2 C 1.6 km/h
699 04-07-2014 10:10:00 19.6 C 12.83 g/m*3 19.6 C 0 km/h
700 04-07-2014 10:15:00 20 C 12.79 g/m*3 20 C 0 km/h
Sensor: Nr:Datum:Temp:Abs-Feuchte:Windchill:Wind:
Aussen-T/F 701 04-07-2014 10:20:00 20.4 C 12.91 g/m*3 20.4 C 0 km/h
702 04-07-2014 10:25:00 20.7 C 13.14 g/m*3 20.7 C 3.2 km/h
703 04-07-2014 10:30:00 21 C 13.19 g/m*3 21 C 1.6 km/h
704 04-07-2014 10:35:00 21.1 C 13.08 g/m*3 21.1 C 0 km/h
705 04-07-2014 10:40:00 21.2 C 13.34 g/m*3 21.2 C 0 km/h
706 04-07-2014 10:45:00 21.3 C 13.23 g/m*3 21.3 C 0 km/h
707 04-07-2014 10:50:00 21.6 C 13.47 g/m*3 21.6 C 1.6 km/h
708 04-07-2014 10:55:00 21.8 C 13.62 g/m*3 21.8 C 0 km/h
709 04-07-2014 11:00:00 22.1 C 13.47 g/m*3 22.1 C 1.6 km/h
710 04-07-2014 11:05:00 22.3 C 13.62 g/m*3 22.3 C 4.8 km/h
711 04-07-2014 11:10:00 22.5 C 13.78 g/m*3 22.5 C 1.6 km/h
712 04-07-2014 11:15:00 22.8 C 13.82 g/m*3 22.8 C 0 km/h
713 04-07-2014 11:20:00 23 C 14.39 g/m*3 23 C 3.2 km/h
714 04-07-2014 11:25:00 23.2 C 14.14 g/m*3 23.2 C 1.6 km/h
715 04-07-2014 11:30:00 23.6 C 14.25 g/m*3 23.6 C 0 km/h
716 04-07-2014 11:35:00 23.9 C 14.28 g/m*3 23.9 C 1.6 km/h
717 04-07-2014 11:40:00 24.7 C 13.58 g/m*3 24.7 C 6.4 km/h
718 04-07-2014 11:45:00 25.2 C 14.2 g/m*3 25.2 C 4.8 km/h
719 04-07-2014 11:50:00 25.8 C 13 g/m*3 25.8 C 6.4 km/h
720 04-07-2014 11:55:00 26.5 C 13.52 g/m*3 26.5 C 4.8 km/h
721 04-07-2014 12:00:00 27.4 C 12.37 g/m*3 27.4 C 8.1 km/h
722 04-07-2014 12:05:00 27.6 C 13.3 g/m*3 27.6 C 6.4 km/h
723 04-07-2014 12:10:00 27.8 C 12.37 g/m*3 27.8 C 6.4 km/h
724 04-07-2014 12:15:00 28.3 C 12.16 g/m*3 28.3 C 9.7 km/h
725 04-07-2014 12:20:00 28.8 C 13.07 g/m*3 28.8 C 9.7 km/h
Sensor: Nr:Datum:Temp:Abs-Feuchte:Windchill:Wind:
Aussen-T/F 726 04-07-2014 12:25:00 29 C 12.93 g/m*3 29 C 11.3 km/h
727 04-07-2014 12:30:00 29.2 C 12.2 g/m*3 29.2 C 9.7 km/h
728 04-07-2014 12:35:00 29.2 C 11.91 g/m*3 29.2 C 4.8 km/h
729 04-07-2014 12:40:00 29.4 C 12.33 g/m*3 29.4 C 6.4 km/h
730 04-07-2014 12:45:00 29.7 C 11.93 g/m*3 29.7 C 11.3 km/h
731 04-07-2014 12:50:00 29.8 C 11.7 g/m*3 29.8 C 6.4 km/h
732 04-07-2014 12:55:00 30 C 12.13 g/m*3 30 C 6.4 km/h
733 04-07-2014 13:00:00 30.2 C 11.04 g/m*3 30.2 C 9.7 km/h
734 04-07-2014 13:05:00 30.2 C 12.87 g/m*3 30.2 C 4.8 km/h
735 04-07-2014 13:10:00 30.1 C 11.59 g/m*3 30.1 C 6.4 km/h
736 04-07-2014 13:15:00 30.1 C 10.98 g/m*3 30.1 C 6.4 km/h
737 04-07-2014 13:20:00 30.1 C 10.37 g/m*3 30.1 C 4.8 km/h
738 04-07-2014 13:25:00 30.2 C 10.73 g/m*3 30.2 C 12.9 km/h
739 04-07-2014 13:30:00 30.4 C 11.77 g/m*3 30.4 C 4.8 km/h
740 04-07-2014 13:35:00 30.2 C 9.5 g/m*3 30.2 C 11.3 km/h
741 04-07-2014 13:40:00 30.1 C 9.45 g/m*3 30.1 C 8.1 km/h
742 04-07-2014 13:45:00 30.3 C 9.86 g/m*3 30.3 C 11.3 km/h
743 04-07-2014 13:50:00 30.6 C 9.71 g/m*3 30.6 C 11.3 km/h
744 04-07-2014 13:55:00 30.6 C 9.4 g/m*3 30.6 C 8.1 km/h
745 04-07-2014 14:00:00 30.4 C 9.61 g/m*3 30.4 C 4.8 km/h
746 04-07-2014 14:05:00 30.2 C 9.2 g/m*3 30.2 C 8.1 km/h
747 04-07-2014 14:10:00 29.9 C 12.37 g/m*3 29.9 C 3.2 km/h
748 04-07-2014 14:15:00 29.5 C 10.92 g/m*3 29.5 C 3.2 km/h
749 04-07-2014 14:20:00 29.3 C 11.09 g/m*3 29.3 C 3.2 km/h
750 04-07-2014 14:25:00 29.4 C 9.69 g/m*3 29.4 C 11.3 km/h
Sensor: Nr:Datum:Temp:Abs-Feuchte:Windchill:Wind:
Aussen-T/F 751 04-07-2014 14:30:00 29.3 C 10.51 g/m*3 29.3 C 4.8 km/h
752 04-07-2014 14:35:00 29.2 C 10.16 g/m*3 29.2 C 3.2 km/h
753 04-07-2014 14:40:00 29.3 C 9.93 g/m*3 29.3 C 4.8 km/h
754 04-07-2014 14:45:00 29.6 C 10.68 g/m*3 29.6 C 3.2 km/h
755 04-07-2014 14:50:00 29.7 C 11.34 g/m*3 29.7 C 12.9 km/h
756 04-07-2014 14:55:00 29.9 C 9.35 g/m*3 29.9 C 14.5 km/h
757 04-07-2014 15:00:00 30.1 C 9.15 g/m*3 30.1 C 4.8 km/h
758 04-07-2014 15:05:00 29.9 C 9.95 g/m*3 29.9 C 8.1 km/h
759 04-07-2014 15:10:00 29.8 C 9.9 g/m*3 29.8 C 3.2 km/h
760 04-07-2014 15:15:00 29.7 C 9.25 g/m*3 29.7 C 9.7 km/h
761 04-07-2014 15:20:00 29.6 C 9.5 g/m*3 29.6 C 6.4 km/h
762 04-07-2014 15:25:00 29.6 C 12.17 g/m*3 29.6 C 4.8 km/h
763 04-07-2014 15:30:00 29.2 C 11.91 g/m*3 29.2 C 1.6 km/h
764 04-07-2014 15:35:00 28.6 C 11.8 g/m*3 28.6 C 4.8 km/h
765 04-07-2014 15:40:00 27.7 C 12.57 g/m*3 27.7 C 0 km/h
766 04-07-2014 15:45:00 26.8 C 13.74 g/m*3 26.8 C 0 km/h
767 04-07-2014 15:50:00 26 C 14.12 g/m*3 26 C 1.6 km/h
768 04-07-2014 15:55:00 25.3 C 13.81 g/m*3 25.3 C 1.6 km/h
769 04-07-2014 16:00:00 24.4 C 13.35 g/m*3 24.4 C 1.6 km/h
770 04-07-2014 16:05:00 23.8 C 13.55 g/m*3 23.8 C 1.6 km/h
771 04-07-2014 16:10:00 23.2 C 13.51 g/m*3 23.2 C 1.6 km/h
772 04-07-2014 16:15:00 22.8 C 12.8 g/m*3 22.8 C 1.6 km/h
773 04-07-2014 16:20:00 22.7 C 13.33 g/m*3 22.7 C 1.6 km/h
774 04-07-2014 16:25:00 22.7 C 13.54 g/m*3 22.7 C 1.6 km/h
775 04-07-2014 16:30:00 22.8 C 13.82 g/m*3 22.8 C 0 km/h
Sensor: Nr:Datum:Temp:Abs-Feuchte:Windchill:Wind:
Aussen-T/F 776 04-07-2014 16:35:00 23.1 C 13.85 g/m*3 23.1 C 0 km/h
777 04-07-2014 16:40:00 23.7 C 12.83 g/m*3 23.7 C 4.8 km/h
778 04-07-2014 16:45:00 24.7 C 11.77 g/m*3 24.7 C 1.6 km/h
779 04-07-2014 16:50:00 25.8 C 12.28 g/m*3 25.8 C 1.6 km/h
780 04-07-2014 16:55:00 26.7 C 13.92 g/m*3 26.7 C 4.8 km/h
781 04-07-2014 17:00:00 27.1 C 11.13 g/m*3 27.1 C 6.4 km/h
782 04-07-2014 17:05:00 27.1 C 13.97 g/m*3 27.1 C 3.2 km/h
783 04-07-2014 17:10:00 26.5 C 13.52 g/m*3 26.5 C 1.6 km/h
784 04-07-2014 17:15:00 26.1 C 13.95 g/m*3 26.1 C 1.6 km/h
785 04-07-2014 17:20:00 25.9 C 14.28 g/m*3 25.9 C 0 km/h
786 04-07-2014 17:25:00 25.9 C 13.32 g/m*3 25.9 C 3.2 km/h
787 04-07-2014 17:30:00 26 C 12.66 g/m*3 26 C 4.8 km/h
788 04-07-2014 17:35:00 26.1 C 12.24 g/m*3 26.1 C 4.8 km/h
789 04-07-2014 17:40:00 26.5 C 12.02 g/m*3 26.5 C 3.2 km/h
790 04-07-2014 17:45:00 27.3 C 11.25 g/m*3 27.3 C 9.7 km/h
791 04-07-2014 17:50:00 28.2 C 12.1 g/m*3 28.2 C 9.7 km/h
792 04-07-2014 17:55:00 28.6 C 12.93 g/m*3 28.6 C 6.4 km/h
793 04-07-2014 18:00:00 27.9 C 12.17 g/m*3 27.9 C 3.2 km/h
794 04-07-2014 18:05:00 27.8 C 11.83 g/m*3 27.8 C 6.4 km/h
795 04-07-2014 18:10:00 28.4 C 11.67 g/m*3 28.4 C 9.7 km/h
796 04-07-2014 18:15:00 28.8 C 11.36 g/m*3 28.8 C 4.8 km/h
797 04-07-2014 18:20:00 28.7 C 13.56 g/m*3 28.7 C 1.6 km/h
798 04-07-2014 18:25:00 28.1 C 13.67 g/m*3 28.1 C 3.2 km/h
799 04-07-2014 18:30:00 27.4 C 13.42 g/m*3 27.4 C 1.6 km/h
800 04-07-2014 18:35:00 26.5 C 14.02 g/m*3 26.5 C 0 km/h
Sensor: Nr:Datum:Temp:Abs-Feuchte:Windchill:Wind:
Aussen-T/F 801 04-07-2014 18:40:00 25.7 C 14.13 g/m*3 25.7 C 0 km/h
802 04-07-2014 18:45:00 25.1 C 14.12 g/m*3 25.1 C 0 km/h
803 04-07-2014 18:50:00 24.8 C 14.11 g/m*3 24.8 C 0 km/h
804 04-07-2014 18:55:00 24.5 C 14.1 g/m*3 24.5 C 0 km/h
805 04-07-2014 19:00:00 24.1 C 14.66 g/m*3 24.1 C 0 km/h
806 04-07-2014 19:05:00 23.4 C 14.09 g/m*3 23.4 C 1.6 km/h
807 04-07-2014 19:10:00 23 C 14.18 g/m*3 23 C 1.6 km/h
808 04-07-2014 19:15:00 22.7 C 13.94 g/m*3 22.7 C 0 km/h
809 04-07-2014 19:20:00 22.6 C 14.06 g/m*3 22.6 C 0 km/h
810 04-07-2014 19:25:00 22.2 C 14.14 g/m*3 22.2 C 1.6 km/h
811 04-07-2014 19:30:00 21.9 C 14.09 g/m*3 21.9 C 3.2 km/h
812 04-07-2014 19:35:00 21.7 C 13.93 g/m*3 21.7 C 1.6 km/h
813 04-07-2014 19:40:00 21.6 C 14.03 g/m*3 21.6 C 0 km/h
814 04-07-2014 19:45:00 21.6 C 14.03 g/m*3 21.6 C 1.6 km/h
815 04-07-2014 19:50:00 21.6 C 13.66 g/m*3 21.6 C 3.2 km/h
816 04-07-2014 19:55:00 21.6 C 13.28 g/m*3 21.6 C 1.6 km/h
817 04-07-2014 20:00:00 21.7 C 12.4 g/m*3 21.7 C 1.6 km/h
818 04-07-2014 20:05:00 21.7 C 12.97 g/m*3 21.7 C 1.6 km/h
819 04-07-2014 20:10:00 21.8 C 11.9 g/m*3 21.8 C 4.8 km/h
820 04-07-2014 20:15:00 22.3 C 11.45 g/m*3 22.3 C 4.8 km/h
821 04-07-2014 20:20:00 22.5 C 12.78 g/m*3 22.5 C 0 km/h
822 04-07-2014 20:25:00 22.5 C 12.78 g/m*3 22.5 C 0 km/h
823 04-07-2014 20:30:00 22.2 C 13.15 g/m*3 22.2 C 0 km/h
824 04-07-2014 20:35:00 21.9 C 12.93 g/m*3 21.9 C 0 km/h
825 04-07-2014 20:40:00 21.7 C 12.97 g/m*3 21.7 C 0 km/h
Sensor: Nr:Datum:Temp:Abs-Feuchte:Windchill:Wind:
Aussen-T/F 826 04-07-2014 20:45:00 21.4 C 12.56 g/m*3 21.4 C 0 km/h
827 04-07-2014 20:50:00 21.3 C 12.68 g/m*3 21.3 C 0 km/h
828 04-07-2014 20:55:00 21.1 C 12.71 g/m*3 21.1 C 0 km/h
829 04-07-2014 21:00:00 21.1 C 12.71 g/m*3 21.1 C 0 km/h
830 04-07-2014 21:05:00 21.1 C 12.71 g/m*3 21.1 C 0 km/h
831 04-07-2014 21:10:00 20.9 C 12.75 g/m*3 20.9 C 0 km/h
832 04-07-2014 21:15:00 20.8 C 12.86 g/m*3 20.8 C 0 km/h
833 04-07-2014 21:20:00 20.4 C 12.91 g/m*3 20.4 C 1.6 km/h
834 04-07-2014 21:25:00 20.1 C 13.21 g/m*3 20.1 C 1.6 km/h
835 04-07-2014 21:30:00 20 C 13.31 g/m*3 20 C 3.2 km/h
836 04-07-2014 21:35:00 19.6 C 13.51 g/m*3 19.6 C 0 km/h
837 04-07-2014 21:40:00 19.4 C 13.35 g/m*3 19.4 C 1.6 km/h
838 04-07-2014 21:45:00 19.3 C 13.44 g/m*3 19.3 C 0 km/h
839 04-07-2014 21:50:00 19.2 C 13.36 g/m*3 19.2 C 3.2 km/h
840 04-07-2014 21:55:00 19.1 C 13.28 g/m*3 19.1 C 3.2 km/h
841 04-07-2014 22:00:00 19.1 C 13.11 g/m*3 19.1 C 3.2 km/h
842 04-07-2014 22:05:00 19.2 C 13.19 g/m*3 19.2 C 3.2 km/h
843 04-07-2014 22:10:00 19.2 C 13.03 g/m*3 19.2 C 3.2 km/h
844 04-07-2014 22:15:00 19.2 C 13.03 g/m*3 19.2 C 1.6 km/h
845 04-07-2014 22:20:00 19.3 C 12.94 g/m*3 19.3 C 1.6 km/h
846 04-07-2014 22:25:00 19.6 C 12.83 g/m*3 19.6 C 3.2 km/h
847 04-07-2014 22:30:00 19.7 C 12.57 g/m*3 19.7 C 3.2 km/h
848 04-07-2014 22:35:00 19.8 C 12.98 g/m*3 19.8 C 1.6 km/h
849 04-07-2014 22:40:00 19.8 C 12.81 g/m*3 19.8 C 1.6 km/h
850 04-07-2014 22:45:00 19.8 C 12.98 g/m*3 19.8 C 0 km/h
Sensor: Nr:Datum:Temp:Abs-Feuchte:Windchill:Wind:
Aussen-T/F 851 04-07-2014 22:50:00 19.8 C 12.98 g/m*3 19.8 C 1.6 km/h
852 04-07-2014 22:55:00 19.7 C 12.91 g/m*3 19.7 C 1.6 km/h
853 04-07-2014 23:00:00 19.7 C 12.91 g/m*3 19.7 C 1.6 km/h
854 04-07-2014 23:05:00 19.7 C 12.74 g/m*3 19.7 C 1.6 km/h
855 04-07-2014 23:10:00 19.8 C 12.81 g/m*3 19.8 C 1.6 km/h
856 04-07-2014 23:15:00 19.7 C 12.74 g/m*3 19.7 C 0 km/h
857 04-07-2014 23:20:00 19.7 C 12.74 g/m*3 19.7 C 0 km/h
858 04-07-2014 23:25:00 19.7 C 12.74 g/m*3 19.7 C 0 km/h
859 04-07-2014 23:30:00 19.7 C 12.74 g/m*3 19.7 C 0 km/h
860 04-07-2014 23:35:00 19.7 C 12.91 g/m*3 19.7 C 0 km/h
861 04-07-2014 23:40:00 19.7 C 12.91 g/m*3 19.7 C 0 km/h
862 04-07-2014 23:45:00 19.7 C 12.91 g/m*3 19.7 C 0 km/h
863 04-07-2014 23:50:00 19.7 C 12.74 g/m*3 19.7 C 0 km/h
864 04-07-2014 23:55:00 19.7 C 12.74 g/m*3 19.7 C 0 km/h

Legende:
   Min
   Max


Maximal/Minimal-Werte vom 02.07.2014 - 04.07.2014

Sensor Min Max Avg
Temp
(Aussen-T/F)
8.6 °C
02-07-2014  05:30:00
31.2 °C
03-07-2014  18:00:00
19 °C
Abs-Feuchte
(Aussen-T/F)
6.61 g/m*3
03-07-2014  18:35:00
14.66 g/m*3
04-07-2014  19:00:00
9.76 g/m*3
Windchill
(Aussen-T/F)
8.6 C
02-07-2014  05:30:00
31.2 C
03-07-2014  18:00:00
18.98 C

Die Daten stammen von einer Davis Vantage Pro 2 Wetter-Station und werden unter Linux mit der Software wview2wettercgi und aufbereitet. Alle Angaben erfolgen ohne Gewähr für ihre Vollständigkeit oder Richtigkeit.
Kontakt: Rainer Krienke krienke@uni-koblenz.de . Meine Webseiten an der Uni Koblenz oder privat.
Version: $Revision: 0.78 $